Aviation Digital Data Service (ADDS)

Output produced by METARs form (1720 UTC 24 June 2019)
found at http://www.aviationweather.gov/metar/data/
 
METAR text: PAPN 241716Z AUTO 23007KT OVC004 07/07 A3018 RMK AO2 CIG 002V006 PWINO $
Conditions at: PAPN (PILOT POINT , AK, US) observed 1716 UTC 24 June 2019
Temperature: 7.0°C (45°F)
Dewpoint: 7.0°C (45°F) [RH = 100%]
Pressure (altimeter): 30.18 inches Hg (1022.1 mb)
Winds: from the SW (230 degrees) at 8 MPH (7 knots; 3.6 m/s)
Visibility: missing
Ceiling: 400 feet AGL
Clouds: overcast cloud deck at 400 feet AGL
Weather:
SOME DATA ABOVE MAY BE INACCURATE!!!
"$" is an indication the sensor requires maintenance

METAR text: PAPN 241656Z AUTO 25009KT OVC002 07/07 A3018 RMK AO2 SLP221 T00720072 PWINO $
Conditions at: PAPN (PILOT POINT , AK, US) observed 1656 UTC 24 June 2019
Temperature: 7.2°C (45°F)
Dewpoint: 7.2°C (45°F) [RH = 100%]
Pressure (altimeter): 30.18 inches Hg (1022.1 mb)
[Sea-level pressure: 1022.1 mb]
Winds: from the WSW (250 degrees) at 10 MPH (9 knots; 4.6 m/s)
Visibility: missing
Ceiling: 200 feet AGL
Clouds: overcast cloud deck at 200 feet AGL
Weather:
SOME DATA ABOVE MAY BE INACCURATE!!!
"$" is an indication the sensor requires maintenance

METAR text: PAPN 241556Z AUTO 24009KT OVC002 07/07 A3018 RMK AO2 SLP223 T00720072 PWINO $
Conditions at: PAPN (PILOT POINT , AK, US) observed 1556 UTC 24 June 2019
Temperature: 7.2°C (45°F)
Dewpoint: 7.2°C (45°F) [RH = 100%]
Pressure (altimeter): 30.18 inches Hg (1022.1 mb)
[Sea-level pressure: 1022.3 mb]
Winds: from the WSW (240 degrees) at 10 MPH (9 knots; 4.6 m/s)
Visibility: missing
Ceiling: 200 feet AGL
Clouds: overcast cloud deck at 200 feet AGL
Weather:
SOME DATA ABOVE MAY BE INACCURATE!!!
"$" is an indication the sensor requires maintenance

METAR text: PAPN 241456Z AUTO 26008KT OVC002 07/07 A3018 RMK AO2 SLP223 T00720067 56008 PWINO $
Conditions at: PAPN (PILOT POINT , AK, US) observed 1456 UTC 24 June 2019
Temperature: 7.2°C (45°F)
Dewpoint: 6.7°C (44°F) [RH = 97%]
Pressure (altimeter): 30.18 inches Hg (1022.1 mb)
[Sea-level pressure: 1022.3 mb]
Winds: from the W (260 degrees) at 9 MPH (8 knots; 4.1 m/s)
Visibility: missing
Ceiling: 200 feet AGL
Clouds: overcast cloud deck at 200 feet AGL
Weather:
SOME DATA ABOVE MAY BE INACCURATE!!!
"$" is an indication the sensor requires maintenance

METAR text: PAPN 241356Z AUTO 26009KT OVC002 07/07 A3019 RMK AO2 SLP226 T00720072 PWINO $
Conditions at: PAPN (PILOT POINT , AK, US) observed 1356 UTC 24 June 2019
Temperature: 7.2°C (45°F)
Dewpoint: 7.2°C (45°F) [RH = 100%]
Pressure (altimeter): 30.19 inches Hg (1022.4 mb)
[Sea-level pressure: 1022.6 mb]
Winds: from the W (260 degrees) at 10 MPH (9 knots; 4.6 m/s)
Visibility: missing
Ceiling: 200 feet AGL
Clouds: overcast cloud deck at 200 feet AGL
Weather:
SOME DATA ABOVE MAY BE INACCURATE!!!
"$" is an indication the sensor requires maintenance

METAR text: PAPN 241256Z AUTO 24007KT OVC002 07/07 A3020 RMK AO2 SLP228 T00720072 PWINO $
Conditions at: PAPN (PILOT POINT , AK, US) observed 1256 UTC 24 June 2019
Temperature: 7.2°C (45°F)
Dewpoint: 7.2°C (45°F) [RH = 100%]
Pressure (altimeter): 30.20 inches Hg (1022.8 mb)
[Sea-level pressure: 1022.8 mb]
Winds: from the WSW (240 degrees) at 8 MPH (7 knots; 3.6 m/s)
Visibility: missing
Ceiling: 200 feet AGL
Clouds: overcast cloud deck at 200 feet AGL
Weather:
SOME DATA ABOVE MAY BE INACCURATE!!!
"$" is an indication the sensor requires maintenance

METAR text: PAPN 241230Z AUTO 24009KT OVC002 07/07 A3020 RMK AO2 PWINO $
Conditions at: PAPN (PILOT POINT , AK, US) observed 1230 UTC 24 June 2019
Temperature: 7.0°C (45°F)
Dewpoint: 7.0°C (45°F) [RH = 100%]
Pressure (altimeter): 30.20 inches Hg (1022.8 mb)
Winds: from the WSW (240 degrees) at 10 MPH (9 knots; 4.6 m/s)
Visibility: missing
Ceiling: 200 feet AGL
Clouds: overcast cloud deck at 200 feet AGL
Weather:
SOME DATA ABOVE MAY BE INACCURATE!!!
"$" is an indication the sensor requires maintenance

METAR text: PAPN 241156Z AUTO 23009KT OVC004 08/07 A3021 RMK AO2 SLP231 T00780072 10089 20072 58005 PWINO $
Conditions at: PAPN (PILOT POINT , AK, US) observed 1156 UTC 24 June 2019
Temperature: 7.8°C (46°F)
Dewpoint: 7.2°C (45°F) [RH = 96%]
Pressure (altimeter): 30.21 inches Hg (1023.1 mb)
[Sea-level pressure: 1023.1 mb]
Winds: from the SW (230 degrees) at 10 MPH (9 knots; 4.6 m/s)
Visibility: missing
Ceiling: 400 feet AGL
Clouds: overcast cloud deck at 400 feet AGL
Weather:
SOME DATA ABOVE MAY BE INACCURATE!!!
"$" is an indication the sensor requires maintenance

METAR text: PAPN 241056Z AUTO 23010KT OVC004 08/07 A3022 RMK AO2 SLP234 T00780072 PWINO $
Conditions at: PAPN (PILOT POINT , AK, US) observed 1056 UTC 24 June 2019
Temperature: 7.8°C (46°F)
Dewpoint: 7.2°C (45°F) [RH = 96%]
Pressure (altimeter): 30.22 inches Hg (1023.5 mb)
[Sea-level pressure: 1023.4 mb]
Winds: from the SW (230 degrees) at 12 MPH (10 knots; 5.1 m/s)
Visibility: missing
Ceiling: 400 feet AGL
Clouds: overcast cloud deck at 400 feet AGL
Weather:
SOME DATA ABOVE MAY BE INACCURATE!!!
"$" is an indication the sensor requires maintenance

METAR text: PAPN 240956Z AUTO 25011KT OVC004 08/07 A3022 RMK AO2 SLP234 T00780072 PWINO $
Conditions at: PAPN (PILOT POINT , AK, US) observed 0956 UTC 24 June 2019
Temperature: 7.8°C (46°F)
Dewpoint: 7.2°C (45°F) [RH = 96%]
Pressure (altimeter): 30.22 inches Hg (1023.5 mb)
[Sea-level pressure: 1023.4 mb]
Winds: from the WSW (250 degrees) at 13 MPH (11 knots; 5.7 m/s)
Visibility: missing
Ceiling: 400 feet AGL
Clouds: overcast cloud deck at 400 feet AGL
Weather:
SOME DATA ABOVE MAY BE INACCURATE!!!
"$" is an indication the sensor requires maintenance

METAR text: PAPN 240856Z AUTO 24012KT OVC004 08/08 A3022 RMK AO2 SLP236 T00780078 53003 PWINO $
Conditions at: PAPN (PILOT POINT , AK, US) observed 0856 UTC 24 June 2019
Temperature: 7.8°C (46°F)
Dewpoint: 7.8°C (46°F) [RH = 100%]
Pressure (altimeter): 30.22 inches Hg (1023.5 mb)
[Sea-level pressure: 1023.6 mb]
Winds: from the WSW (240 degrees) at 14 MPH (12 knots; 6.2 m/s)
Visibility: missing
Ceiling: 400 feet AGL
Clouds: overcast cloud deck at 400 feet AGL
Weather:
SOME DATA ABOVE MAY BE INACCURATE!!!
"$" is an indication the sensor requires maintenance

METAR text: PAPN 240821Z AUTO 25009KT OVC004 08/07 A3022 RMK AO2 CIG 003V006 PWINO $
Conditions at: PAPN (PILOT POINT , AK, US) observed 0821 UTC 24 June 2019
Temperature: 8.0°C (46°F)
Dewpoint: 7.0°C (45°F) [RH = 93%]
Pressure (altimeter): 30.22 inches Hg (1023.5 mb)
Winds: from the WSW (250 degrees) at 10 MPH (9 knots; 4.6 m/s)
Visibility: missing
Ceiling: 400 feet AGL
Clouds: overcast cloud deck at 400 feet AGL
Weather:
SOME DATA ABOVE MAY BE INACCURATE!!!
"$" is an indication the sensor requires maintenance

METAR text: PAPN 240756Z AUTO 26011KT OVC008 08/07 A3022 RMK AO2 SLP234 T00830072 401060083 PWINO $
Conditions at: PAPN (PILOT POINT , AK, US) observed 0756 UTC 24 June 2019
Temperature: 8.3°C (47°F)
Dewpoint: 7.2°C (45°F) [RH = 93%]
Pressure (altimeter): 30.22 inches Hg (1023.5 mb)
[Sea-level pressure: 1023.4 mb]
Winds: from the W (260 degrees) at 13 MPH (11 knots; 5.7 m/s)
Visibility: missing
Ceiling: 800 feet AGL
Clouds: overcast cloud deck at 800 feet AGL
Weather:
SOME DATA ABOVE MAY BE INACCURATE!!!
"$" is an indication the sensor requires maintenance

METAR text: PAPN 240656Z AUTO 26008KT OVC008 09/08 A3021 RMK AO2 SLP233 T00890078 PWINO $
Conditions at: PAPN (PILOT POINT , AK, US) observed 0656 UTC 24 June 2019
Temperature: 8.9°C (48°F)
Dewpoint: 7.8°C (46°F) [RH = 93%]
Pressure (altimeter): 30.21 inches Hg (1023.1 mb)
[Sea-level pressure: 1023.3 mb]
Winds: from the W (260 degrees) at 9 MPH (8 knots; 4.1 m/s)
Visibility: missing
Ceiling: 800 feet AGL
Clouds: overcast cloud deck at 800 feet AGL
Weather:
SOME DATA ABOVE MAY BE INACCURATE!!!
"$" is an indication the sensor requires maintenance

METAR text: PAPN 240635Z AUTO 25010KT OVC008 09/08 A3021 RMK AO2 CIG 006V010 PWINO $
Conditions at: PAPN (PILOT POINT , AK, US) observed 0635 UTC 24 June 2019
Temperature: 9.0°C (48°F)
Dewpoint: 8.0°C (46°F) [RH = 93%]
Pressure (altimeter): 30.21 inches Hg (1023.1 mb)
Winds: from the WSW (250 degrees) at 12 MPH (10 knots; 5.1 m/s)
Visibility: missing
Ceiling: 800 feet AGL
Clouds: overcast cloud deck at 800 feet AGL
Weather:
SOME DATA ABOVE MAY BE INACCURATE!!!
"$" is an indication the sensor requires maintenance

METAR text: PAPN 240556Z AUTO 24010KT OVC012 09/07 A3021 RMK AO2 SLP233 T00890067 10106 20089 58003 PWINO $
Conditions at: PAPN (PILOT POINT , AK, US) observed 0556 UTC 24 June 2019
Temperature: 8.9°C (48°F)
Dewpoint: 6.7°C (44°F) [RH = 86%]
Pressure (altimeter): 30.21 inches Hg (1023.1 mb)
[Sea-level pressure: 1023.3 mb]
Winds: from the WSW (240 degrees) at 12 MPH (10 knots; 5.1 m/s)
Visibility: missing
Ceiling: 1200 feet AGL
Clouds: overcast cloud deck at 1200 feet AGL
Weather:
SOME DATA ABOVE MAY BE INACCURATE!!!
"$" is an indication the sensor requires maintenance

METAR text: PAPN 240456Z AUTO 26013KT OVC012 09/07 A3022 RMK AO2 SLP234 T00940072 PWINO $
Conditions at: PAPN (PILOT POINT , AK, US) observed 0456 UTC 24 June 2019
Temperature: 9.4°C (49°F)
Dewpoint: 7.2°C (45°F) [RH = 86%]
Pressure (altimeter): 30.22 inches Hg (1023.5 mb)
[Sea-level pressure: 1023.4 mb]
Winds: from the W (260 degrees) at 15 MPH (13 knots; 6.7 m/s)
Visibility: missing
Ceiling: 1200 feet AGL
Clouds: overcast cloud deck at 1200 feet AGL
Weather:
SOME DATA ABOVE MAY BE INACCURATE!!!
"$" is an indication the sensor requires maintenance

METAR text: PAPN 240432Z AUTO 26013KT OVC012 10/08 A3022 RMK AO2 PWINO $
Conditions at: PAPN (PILOT POINT , AK, US) observed 0432 UTC 24 June 2019
Temperature: 10.0°C (50°F)
Dewpoint: 8.0°C (46°F) [RH = 87%]
Pressure (altimeter): 30.22 inches Hg (1023.5 mb)
Winds: from the W (260 degrees) at 15 MPH (13 knots; 6.7 m/s)
Visibility: missing
Ceiling: 1200 feet AGL
Clouds: overcast cloud deck at 1200 feet AGL
Weather:
SOME DATA ABOVE MAY BE INACCURATE!!!
"$" is an indication the sensor requires maintenance

METAR text: PAPN 240356Z AUTO 27012KT FEW007 OVC015 10/08 A3022 RMK AO2 SLP237 T01000083 PWINO $
Conditions at: PAPN (PILOT POINT , AK, US) observed 0356 UTC 24 June 2019
Temperature: 10.0°C (50°F)
Dewpoint: 8.3°C (47°F) [RH = 89%]
Pressure (altimeter): 30.22 inches Hg (1023.5 mb)
[Sea-level pressure: 1023.7 mb]
Winds: from the W (270 degrees) at 14 MPH (12 knots; 6.2 m/s)
Visibility: missing
Ceiling: 1500 feet AGL
Clouds: few clouds at 700 feet AGL
overcast cloud deck at 1500 feet AGL
Weather:
SOME DATA ABOVE MAY BE INACCURATE!!!
"$" is an indication the sensor requires maintenance

METAR text: PAPN 240256Z AUTO 26012KT FEW005 OVC015 10/09 A3022 RMK AO2 SLP237 T01000089 55005 PWINO $
Conditions at: PAPN (PILOT POINT , AK, US) observed 0256 UTC 24 June 2019
Temperature: 10.0°C (50°F)
Dewpoint: 8.9°C (48°F) [RH = 93%]
Pressure (altimeter): 30.22 inches Hg (1023.5 mb)
[Sea-level pressure: 1023.7 mb]
Winds: from the W (260 degrees) at 14 MPH (12 knots; 6.2 m/s)
Visibility: missing
Ceiling: 1500 feet AGL
Clouds: few clouds at 500 feet AGL
overcast cloud deck at 1500 feet AGL
Weather:
SOME DATA ABOVE MAY BE INACCURATE!!!
"$" is an indication the sensor requires maintenance

METAR text: PAPN 240252Z AUTO 27013KT SCT005 OVC015 10/09 A3022 RMK AO2 PWINO $
Conditions at: PAPN (PILOT POINT , AK, US) observed 0252 UTC 24 June 2019
Temperature: 10.0°C (50°F)
Dewpoint: 9.0°C (48°F) [RH = 93%]
Pressure (altimeter): 30.22 inches Hg (1023.5 mb)
Winds: from the W (270 degrees) at 15 MPH (13 knots; 6.7 m/s)
Visibility: missing
Ceiling: 1500 feet AGL
Clouds: scattered clouds at 500 feet AGL
overcast cloud deck at 1500 feet AGL
Weather:
SOME DATA ABOVE MAY BE INACCURATE!!!
"$" is an indication the sensor requires maintenance

METAR text: PAPN 240156Z AUTO 27012KT OVC005 10/08 A3023 RMK AO2 SLP240 T01000083 PWINO $
Conditions at: PAPN (PILOT POINT , AK, US) observed 0156 UTC 24 June 2019
Temperature: 10.0°C (50°F)
Dewpoint: 8.3°C (47°F) [RH = 89%]
Pressure (altimeter): 30.23 inches Hg (1023.8 mb)
[Sea-level pressure: 1024.0 mb]
Winds: from the W (270 degrees) at 14 MPH (12 knots; 6.2 m/s)
Visibility: missing
Ceiling: 500 feet AGL
Clouds: overcast cloud deck at 500 feet AGL
Weather:
SOME DATA ABOVE MAY BE INACCURATE!!!
"$" is an indication the sensor requires maintenance

METAR text: PAPN 240056Z AUTO 27016KT OVC005 10/09 A3024 RMK AO2 SLP242 T01000089 PWINO $
Conditions at: PAPN (PILOT POINT , AK, US) observed 0056 UTC 24 June 2019
Temperature: 10.0°C (50°F)
Dewpoint: 8.9°C (48°F) [RH = 93%]
Pressure (altimeter): 30.24 inches Hg (1024.1 mb)
[Sea-level pressure: 1024.2 mb]
Winds: from the W (270 degrees) at 18 MPH (16 knots; 8.2 m/s)
Visibility: missing
Ceiling: 500 feet AGL
Clouds: overcast cloud deck at 500 feet AGL
Weather:
SOME DATA ABOVE MAY BE INACCURATE!!!
"$" is an indication the sensor requires maintenance

METAR text: PAPN 240033Z AUTO 27016KT OVC005 10/09 A3024 RMK AO2 PWINO $
Conditions at: PAPN (PILOT POINT , AK, US) observed 0033 UTC 24 June 2019
Temperature: 10.0°C (50°F)
Dewpoint: 9.0°C (48°F) [RH = 93%]
Pressure (altimeter): 30.24 inches Hg (1024.1 mb)
Winds: from the W (270 degrees) at 18 MPH (16 knots; 8.2 m/s)
Visibility: missing
Ceiling: 500 feet AGL
Clouds: overcast cloud deck at 500 feet AGL
Weather:
SOME DATA ABOVE MAY BE INACCURATE!!!
"$" is an indication the sensor requires maintenance

METAR text: PAPN 232356Z AUTO 27016KT OVC003 10/09 A3025 RMK AO2 SLP244 T01000089 10100 20089 50001 PWINO $
Conditions at: PAPN (PILOT POINT , AK, US) observed 2356 UTC 23 June 2019
Temperature: 10.0°C (50°F)
Dewpoint: 8.9°C (48°F) [RH = 93%]
Pressure (altimeter): 30.25 inches Hg (1024.5 mb)
[Sea-level pressure: 1024.4 mb]
Winds: from the W (270 degrees) at 18 MPH (16 knots; 8.2 m/s)
Visibility: missing
Ceiling: 300 feet AGL
Clouds: overcast cloud deck at 300 feet AGL
Weather:
SOME DATA ABOVE MAY BE INACCURATE!!!
"$" is an indication the sensor requires maintenance

METAR text: PAPN 232256Z AUTO 27016KT OVC003 09/09 A3025 RMK AO2 SLP245 T00940089 PWINO $
Conditions at: PAPN (PILOT POINT , AK, US) observed 2256 UTC 23 June 2019
Temperature: 9.4°C (49°F)
Dewpoint: 8.9°C (48°F) [RH = 97%]
Pressure (altimeter): 30.25 inches Hg (1024.5 mb)
[Sea-level pressure: 1024.5 mb]
Winds: from the W (270 degrees) at 18 MPH (16 knots; 8.2 m/s)
Visibility: missing
Ceiling: 300 feet AGL
Clouds: overcast cloud deck at 300 feet AGL
Weather:
SOME DATA ABOVE MAY BE INACCURATE!!!
"$" is an indication the sensor requires maintenance

METAR text: PAPN 232156Z AUTO 27017KT OVC003 10/09 A3024 RMK AO2 SLP243 T01000094 PWINO $
Conditions at: PAPN (PILOT POINT , AK, US) observed 2156 UTC 23 June 2019
Temperature: 10.0°C (50°F)
Dewpoint: 9.4°C (49°F) [RH = 96%]
Pressure (altimeter): 30.24 inches Hg (1024.1 mb)
[Sea-level pressure: 1024.3 mb]
Winds: from the W (270 degrees) at 20 MPH (17 knots; 8.7 m/s)
Visibility: missing
Ceiling: 300 feet AGL
Clouds: overcast cloud deck at 300 feet AGL
Weather:
SOME DATA ABOVE MAY BE INACCURATE!!!
"$" is an indication the sensor requires maintenance

METAR text: PAPN 232151Z AUTO 26016KT OVC003 10/09 A3024 RMK AO2 PWINO $
Conditions at: PAPN (PILOT POINT , AK, US) observed 2151 UTC 23 June 2019
Temperature: 10.0°C (50°F)
Dewpoint: 9.0°C (48°F) [RH = 93%]
Pressure (altimeter): 30.24 inches Hg (1024.1 mb)
Winds: from the W (260 degrees) at 18 MPH (16 knots; 8.2 m/s)
Visibility: missing
Ceiling: 300 feet AGL
Clouds: overcast cloud deck at 300 feet AGL
Weather:
SOME DATA ABOVE MAY BE INACCURATE!!!
"$" is an indication the sensor requires maintenance

METAR text: PAPN 232056Z AUTO 26015KT OVC005 09/09 A3024 RMK AO2 SLP244 T00940089 51004 PWINO $
Conditions at: PAPN (PILOT POINT , AK, US) observed 2056 UTC 23 June 2019
Temperature: 9.4°C (49°F)
Dewpoint: 8.9°C (48°F) [RH = 97%]
Pressure (altimeter): 30.24 inches Hg (1024.1 mb)
[Sea-level pressure: 1024.4 mb]
Winds: from the W (260 degrees) at 17 MPH (15 knots; 7.7 m/s)
Visibility: missing
Ceiling: 500 feet AGL
Clouds: overcast cloud deck at 500 feet AGL
Weather:
SOME DATA ABOVE MAY BE INACCURATE!!!
"$" is an indication the sensor requires maintenance

METAR text: PAPN 232034Z AUTO 25016G20KT OVC005 09/09 A3024 RMK AO2 PWINO $
Conditions at: PAPN (PILOT POINT , AK, US) observed 2034 UTC 23 June 2019
Temperature: 9.0°C (48°F)
Dewpoint: 9.0°C (48°F) [RH = 100%]
Pressure (altimeter): 30.24 inches Hg (1024.1 mb)
Winds: from the WSW (250 degrees) at 18 MPH (16 knots; 8.2 m/s)
gusting to 23 MPH (20 knots; 10.3 m/s)
Visibility: missing
Ceiling: 500 feet AGL
Clouds: overcast cloud deck at 500 feet AGL
Weather:
SOME DATA ABOVE MAY BE INACCURATE!!!
"$" is an indication the sensor requires maintenance

METAR text: PAPN 231956Z AUTO 25013KT OVC003 09/09 A3024 RMK AO2 SLP243 T00940089 PWINO $
Conditions at: PAPN (PILOT POINT , AK, US) observed 1956 UTC 23 June 2019
Temperature: 9.4°C (49°F)
Dewpoint: 8.9°C (48°F) [RH = 97%]
Pressure (altimeter): 30.24 inches Hg (1024.1 mb)
[Sea-level pressure: 1024.3 mb]
Winds: from the WSW (250 degrees) at 15 MPH (13 knots; 6.7 m/s)
Visibility: missing
Ceiling: 300 feet AGL
Clouds: overcast cloud deck at 300 feet AGL
Weather:
SOME DATA ABOVE MAY BE INACCURATE!!!
"$" is an indication the sensor requires maintenance

METAR text: PAPN 231856Z AUTO 25015KT OVC003 09/09 A3024 RMK AO2 SLP242 T00940089 PWINO $
Conditions at: PAPN (PILOT POINT , AK, US) observed 1856 UTC 23 June 2019
Temperature: 9.4°C (49°F)
Dewpoint: 8.9°C (48°F) [RH = 97%]
Pressure (altimeter): 30.24 inches Hg (1024.1 mb)
[Sea-level pressure: 1024.2 mb]
Winds: from the WSW (250 degrees) at 17 MPH (15 knots; 7.7 m/s)
Visibility: missing
Ceiling: 300 feet AGL
Clouds: overcast cloud deck at 300 feet AGL
Weather:
SOME DATA ABOVE MAY BE INACCURATE!!!
"$" is an indication the sensor requires maintenance

METAR text: PAPN 231756Z AUTO 25018KT OVC003 09/08 A3023 RMK AO2 SLP240 T00890083 10094 20083 58001 PWINO $
Conditions at: PAPN (PILOT POINT , AK, US) observed 1756 UTC 23 June 2019
Temperature: 8.9°C (48°F)
Dewpoint: 8.3°C (47°F) [RH = 96%]
Pressure (altimeter): 30.23 inches Hg (1023.8 mb)
[Sea-level pressure: 1024.0 mb]
Winds: from the WSW (250 degrees) at 21 MPH (18 knots; 9.3 m/s)
Visibility: missing
Ceiling: 300 feet AGL
Clouds: overcast cloud deck at 300 feet AGL
Weather:
SOME DATA ABOVE MAY BE INACCURATE!!!
"$" is an indication the sensor requires maintenance

METAR text: PAPN 231703Z AUTO 25011KT OVC003 08/08 A3025 RMK AO2 PWINO $
Conditions at: PAPN (PILOT POINT , AK, US) observed 1703 UTC 23 June 2019
Temperature: 8.0°C (46°F)
Dewpoint: 8.0°C (46°F) [RH = 100%]
Pressure (altimeter): 30.25 inches Hg (1024.5 mb)
Winds: from the WSW (250 degrees) at 13 MPH (11 knots; 5.7 m/s)
Visibility: missing
Ceiling: 300 feet AGL
Clouds: overcast cloud deck at 300 feet AGL
Weather:
SOME DATA ABOVE MAY BE INACCURATE!!!
"$" is an indication the sensor requires maintenance

METAR text: PAPN 231656Z AUTO 25013KT OVC005 08/08 A3025 RMK AO2 SLP245 T00830078 PWINO $
Conditions at: PAPN (PILOT POINT , AK, US) observed 1656 UTC 23 June 2019
Temperature: 8.3°C (47°F)
Dewpoint: 7.8°C (46°F) [RH = 97%]
Pressure (altimeter): 30.25 inches Hg (1024.5 mb)
[Sea-level pressure: 1024.5 mb]
Winds: from the WSW (250 degrees) at 15 MPH (13 knots; 6.7 m/s)
Visibility: missing
Ceiling: 500 feet AGL
Clouds: overcast cloud deck at 500 feet AGL
Weather:
SOME DATA ABOVE MAY BE INACCURATE!!!
"$" is an indication the sensor requires maintenance

METAR text: PAPN 231620Z AUTO 24013KT OVC005 08/08 A3025 RMK AO2 PWINO $
Conditions at: PAPN (PILOT POINT , AK, US) observed 1620 UTC 23 June 2019
Temperature: 8.0°C (46°F)
Dewpoint: 8.0°C (46°F) [RH = 100%]
Pressure (altimeter): 30.25 inches Hg (1024.5 mb)
Winds: from the WSW (240 degrees) at 15 MPH (13 knots; 6.7 m/s)
Visibility: missing
Ceiling: 500 feet AGL
Clouds: overcast cloud deck at 500 feet AGL
Weather:
SOME DATA ABOVE MAY BE INACCURATE!!!
"$" is an indication the sensor requires maintenance

METAR text: PAPN 231556Z AUTO 25014KT OVC007 08/07 A3024 RMK AO2 SLP242 T00830072 PWINO $
Conditions at: PAPN (PILOT POINT , AK, US) observed 1556 UTC 23 June 2019
Temperature: 8.3°C (47°F)
Dewpoint: 7.2°C (45°F) [RH = 93%]
Pressure (altimeter): 30.24 inches Hg (1024.1 mb)
[Sea-level pressure: 1024.2 mb]
Winds: from the WSW (250 degrees) at 16 MPH (14 knots; 7.2 m/s)
Visibility: missing
Ceiling: 700 feet AGL
Clouds: overcast cloud deck at 700 feet AGL
Weather:
SOME DATA ABOVE MAY BE INACCURATE!!!
"$" is an indication the sensor requires maintenance

METAR text: PAPN 231456Z AUTO 26017KT OVC007 08/07 A3024 RMK AO2 CIG 006V010 SLP241 T00830072 50000 PWINO $
Conditions at: PAPN (PILOT POINT , AK, US) observed 1456 UTC 23 June 2019
Temperature: 8.3°C (47°F)
Dewpoint: 7.2°C (45°F) [RH = 93%]
Pressure (altimeter): 30.24 inches Hg (1024.1 mb)
[Sea-level pressure: 1024.1 mb]
Winds: from the W (260 degrees) at 20 MPH (17 knots; 8.7 m/s)
Visibility: missing
Ceiling: 700 feet AGL
Clouds: overcast cloud deck at 700 feet AGL
Weather:
SOME DATA ABOVE MAY BE INACCURATE!!!
"$" is an indication the sensor requires maintenance

METAR text: PAPN 231434Z AUTO 26016G20KT OVC007 09/08 A3024 RMK AO2 PWINO $
Conditions at: PAPN (PILOT POINT , AK, US) observed 1434 UTC 23 June 2019
Temperature: 9.0°C (48°F)
Dewpoint: 8.0°C (46°F) [RH = 93%]
Pressure (altimeter): 30.24 inches Hg (1024.1 mb)
Winds: from the W (260 degrees) at 18 MPH (16 knots; 8.2 m/s)
gusting to 23 MPH (20 knots; 10.3 m/s)
Visibility: missing
Ceiling: 700 feet AGL
Clouds: overcast cloud deck at 700 feet AGL
Weather:
SOME DATA ABOVE MAY BE INACCURATE!!!
"$" is an indication the sensor requires maintenance

METAR text: PAPN 231356Z AUTO 27015KT OVC005 09/08 A3024 RMK AO2 SLP241 T00890083 PWINO $
Conditions at: PAPN (PILOT POINT , AK, US) observed 1356 UTC 23 June 2019
Temperature: 8.9°C (48°F)
Dewpoint: 8.3°C (47°F) [RH = 96%]
Pressure (altimeter): 30.24 inches Hg (1024.1 mb)
[Sea-level pressure: 1024.1 mb]
Winds: from the W (270 degrees) at 17 MPH (15 knots; 7.7 m/s)
Visibility: missing
Ceiling: 500 feet AGL
Clouds: overcast cloud deck at 500 feet AGL
Weather:
SOME DATA ABOVE MAY BE INACCURATE!!!
"$" is an indication the sensor requires maintenance

METAR text: PAPN 231324Z AUTO 26016G20KT OVC005 09/08 A3024 RMK AO2 CIG 003V009 PWINO $
Conditions at: PAPN (PILOT POINT , AK, US) observed 1324 UTC 23 June 2019
Temperature: 9.0°C (48°F)
Dewpoint: 8.0°C (46°F) [RH = 93%]
Pressure (altimeter): 30.24 inches Hg (1024.1 mb)
Winds: from the W (260 degrees) at 18 MPH (16 knots; 8.2 m/s)
gusting to 23 MPH (20 knots; 10.3 m/s)
Visibility: missing
Ceiling: 500 feet AGL
Clouds: overcast cloud deck at 500 feet AGL
Weather:
SOME DATA ABOVE MAY BE INACCURATE!!!
"$" is an indication the sensor requires maintenance

METAR text: PAPN 231256Z AUTO 27015KT BKN007 BKN011 OVC019 09/08 A3024 RMK AO2 CIG 006V010 SLP241 T00890083 PWINO $
Conditions at: PAPN (PILOT POINT , AK, US) observed 1256 UTC 23 June 2019
Temperature: 8.9°C (48°F)
Dewpoint: 8.3°C (47°F) [RH = 96%]
Pressure (altimeter): 30.24 inches Hg (1024.1 mb)
[Sea-level pressure: 1024.1 mb]
Winds: from the W (270 degrees) at 17 MPH (15 knots; 7.7 m/s)
Visibility: missing
Ceiling: 700 feet AGL
Clouds: broken clouds at 700 feet AGL
broken clouds at 1100 feet AGL
overcast cloud deck at 1900 feet AGL
Weather:
SOME DATA ABOVE MAY BE INACCURATE!!!
"$" is an indication the sensor requires maintenance

METAR text: PAPN 231203Z AUTO 26016KT FEW009 OVC021 09/08 A3024 RMK AO2 PWINO $
Conditions at: PAPN (PILOT POINT , AK, US) observed 1203 UTC 23 June 2019
Temperature: 9.0°C (48°F)
Dewpoint: 8.0°C (46°F) [RH = 93%]
Pressure (altimeter): 30.24 inches Hg (1024.1 mb)
Winds: from the W (260 degrees) at 18 MPH (16 knots; 8.2 m/s)
Visibility: missing
Ceiling: 2100 feet AGL
Clouds: few clouds at 900 feet AGL
overcast cloud deck at 2100 feet AGL
Weather:
SOME DATA ABOVE MAY BE INACCURATE!!!
"$" is an indication the sensor requires maintenance

METAR text: PAPN 231156Z AUTO 26015KT OVC021 09/08 A3024 RMK AO2 SLP241 70003 T00940078 10094 20094 55000 PWINO $
Conditions at: PAPN (PILOT POINT , AK, US) observed 1156 UTC 23 June 2019
Temperature: 9.4°C (49°F)
Dewpoint: 7.8°C (46°F) [RH = 90%]
Pressure (altimeter): 30.24 inches Hg (1024.1 mb)
[Sea-level pressure: 1024.1 mb]
Winds: from the W (260 degrees) at 17 MPH (15 knots; 7.7 m/s)
Visibility: missing
Ceiling: 2100 feet AGL
Clouds: overcast cloud deck at 2100 feet AGL
Weather:
SOME DATA ABOVE MAY BE INACCURATE!!!
"$" is an indication the sensor requires maintenance

METAR text: PAPN 231125Z AUTO 26016KT SCT008 SCT013 OVC021 09/08 A3024 RMK AO2 PWINO $
Conditions at: PAPN (PILOT POINT , AK, US) observed 1125 UTC 23 June 2019
Temperature: 9.0°C (48°F)
Dewpoint: 8.0°C (46°F) [RH = 93%]
Pressure (altimeter): 30.24 inches Hg (1024.1 mb)
Winds: from the W (260 degrees) at 18 MPH (16 knots; 8.2 m/s)
Visibility: missing
Ceiling: 2100 feet AGL
Clouds: scattered clouds at 800 feet AGL
scattered clouds at 1300 feet AGL
overcast cloud deck at 2100 feet AGL
Weather:
SOME DATA ABOVE MAY BE INACCURATE!!!
"$" is an indication the sensor requires maintenance

METAR text: PAPN 231103Z AUTO 26015KT BKN008 BKN013 OVC019 09/08 A3024 RMK AO2 CIG 007V011 PWINO $
Conditions at: PAPN (PILOT POINT , AK, US) observed 1103 UTC 23 June 2019
Temperature: 9.0°C (48°F)
Dewpoint: 8.0°C (46°F) [RH = 93%]
Pressure (altimeter): 30.24 inches Hg (1024.1 mb)
Winds: from the W (260 degrees) at 17 MPH (15 knots; 7.7 m/s)
Visibility: missing
Ceiling: 800 feet AGL
Clouds: broken clouds at 800 feet AGL
broken clouds at 1300 feet AGL
overcast cloud deck at 1900 feet AGL
Weather:
SOME DATA ABOVE MAY BE INACCURATE!!!
"$" is an indication the sensor requires maintenance

METAR text: PAPN 231056Z AUTO 26015KT SCT010 OVC019 09/08 A3024 RMK AO2 SLP241 T00940083 PWINO $
Conditions at: PAPN (PILOT POINT , AK, US) observed 1056 UTC 23 June 2019
Temperature: 9.4°C (49°F)
Dewpoint: 8.3°C (47°F) [RH = 93%]
Pressure (altimeter): 30.24 inches Hg (1024.1 mb)
[Sea-level pressure: 1024.1 mb]
Winds: from the W (260 degrees) at 17 MPH (15 knots; 7.7 m/s)
Visibility: missing
Ceiling: 1900 feet AGL
Clouds: scattered clouds at 1000 feet AGL
overcast cloud deck at 1900 feet AGL
Weather:
SOME DATA ABOVE MAY BE INACCURATE!!!
"$" is an indication the sensor requires maintenance

METAR text: PAPN 231033Z AUTO 26015KT SCT008 OVC019 09/08 A3024 RMK AO2 PWINO $
Conditions at: PAPN (PILOT POINT , AK, US) observed 1033 UTC 23 June 2019
Temperature: 9.0°C (48°F)
Dewpoint: 8.0°C (46°F) [RH = 93%]
Pressure (altimeter): 30.24 inches Hg (1024.1 mb)
Winds: from the W (260 degrees) at 17 MPH (15 knots; 7.7 m/s)
Visibility: missing
Ceiling: 1900 feet AGL
Clouds: scattered clouds at 800 feet AGL
overcast cloud deck at 1900 feet AGL
Weather:
SOME DATA ABOVE MAY BE INACCURATE!!!
"$" is an indication the sensor requires maintenance

METAR text: PAPN 230956Z AUTO 26014KT BKN008 OVC021 09/08 A3024 RMK AO2 SLP241 T00940083 PWINO $
Conditions at: PAPN (PILOT POINT , AK, US) observed 0956 UTC 23 June 2019
Temperature: 9.4°C (49°F)
Dewpoint: 8.3°C (47°F) [RH = 93%]
Pressure (altimeter): 30.24 inches Hg (1024.1 mb)
[Sea-level pressure: 1024.1 mb]
Winds: from the W (260 degrees) at 16 MPH (14 knots; 7.2 m/s)
Visibility: missing
Ceiling: 800 feet AGL
Clouds: broken clouds at 800 feet AGL
overcast cloud deck at 2100 feet AGL
Weather:
SOME DATA ABOVE MAY BE INACCURATE!!!
"$" is an indication the sensor requires maintenance

METAR text: PAPN 230856Z AUTO 26014KT OVC006 09/09 A3024 RMK AO2 SLP241 T00940089 53009 PWINO $
Conditions at: PAPN (PILOT POINT , AK, US) observed 0856 UTC 23 June 2019
Temperature: 9.4°C (49°F)
Dewpoint: 8.9°C (48°F) [RH = 97%]
Pressure (altimeter): 30.24 inches Hg (1024.1 mb)
[Sea-level pressure: 1024.1 mb]
Winds: from the W (260 degrees) at 16 MPH (14 knots; 7.2 m/s)
Visibility: missing
Ceiling: 600 feet AGL
Clouds: overcast cloud deck at 600 feet AGL
Weather:
SOME DATA ABOVE MAY BE INACCURATE!!!
"$" is an indication the sensor requires maintenance

METAR text: PAPN 230756Z AUTO 26013KT OVC006 09/09 A3023 RMK AO2 SLP238 T00940089 400940089 PWINO $
Conditions at: PAPN (PILOT POINT , AK, US) observed 0756 UTC 23 June 2019
Temperature: 9.4°C (49°F)
Dewpoint: 8.9°C (48°F) [RH = 97%]
Pressure (altimeter): 30.23 inches Hg (1023.8 mb)
[Sea-level pressure: 1023.8 mb]
Winds: from the W (260 degrees) at 15 MPH (13 knots; 6.7 m/s)
Visibility: missing
Ceiling: 600 feet AGL
Clouds: overcast cloud deck at 600 feet AGL
Weather:
SOME DATA ABOVE MAY BE INACCURATE!!!
"$" is an indication the sensor requires maintenance

METAR text: PAPN 230656Z AUTO 25014KT OVC006 09/09 A3022 RMK AO2 SLP236 T00940089 PWINO $
Conditions at: PAPN (PILOT POINT , AK, US) observed 0656 UTC 23 June 2019
Temperature: 9.4°C (49°F)
Dewpoint: 8.9°C (48°F) [RH = 97%]
Pressure (altimeter): 30.22 inches Hg (1023.5 mb)
[Sea-level pressure: 1023.6 mb]
Winds: from the WSW (250 degrees) at 16 MPH (14 knots; 7.2 m/s)
Visibility: missing
Ceiling: 600 feet AGL
Clouds: overcast cloud deck at 600 feet AGL
Weather:
SOME DATA ABOVE MAY BE INACCURATE!!!
"$" is an indication the sensor requires maintenance

METAR text: PAPN 230646Z AUTO 25016KT OVC006 09/09 A3022 RMK AO2 PWINO $
Conditions at: PAPN (PILOT POINT , AK, US) observed 0646 UTC 23 June 2019
Temperature: 9.0°C (48°F)
Dewpoint: 9.0°C (48°F) [RH = 100%]
Pressure (altimeter): 30.22 inches Hg (1023.5 mb)
Winds: from the WSW (250 degrees) at 18 MPH (16 knots; 8.2 m/s)
Visibility: missing
Ceiling: 600 feet AGL
Clouds: overcast cloud deck at 600 feet AGL
Weather:
SOME DATA ABOVE MAY BE INACCURATE!!!
"$" is an indication the sensor requires maintenance

METAR text: PAPN 230556Z AUTO 25016KT OVC004 09/09 A3021 RMK AO2 SLP232 T00940089 10094 20089 55001 PWINO $
Conditions at: PAPN (PILOT POINT , AK, US) observed 0556 UTC 23 June 2019
Temperature: 9.4°C (49°F)
Dewpoint: 8.9°C (48°F) [RH = 97%]
Pressure (altimeter): 30.21 inches Hg (1023.1 mb)
[Sea-level pressure: 1023.2 mb]
Winds: from the WSW (250 degrees) at 18 MPH (16 knots; 8.2 m/s)
Visibility: missing
Ceiling: 400 feet AGL
Clouds: overcast cloud deck at 400 feet AGL
Weather:
SOME DATA ABOVE MAY BE INACCURATE!!!
"$" is an indication the sensor requires maintenance